sensor_id;sensor_type;location;lat;lon;timestamp;temperature;humidity
22968;DHT22;11650;48.106;-1.696;2023-12-20T00:01:02;7.60;99.90
22968;DHT22;11650;48.106;-1.696;2023-12-20T00:03:27;7.60;99.90
22968;DHT22;11650;48.106;-1.696;2023-12-20T00:05:53;7.50;99.90
22968;DHT22;11650;48.106;-1.696;2023-12-20T00:08:18;7.50;99.90
22968;DHT22;11650;48.106;-1.696;2023-12-20T00:10:44;7.50;99.90
22968;DHT22;11650;48.106;-1.696;2023-12-20T00:13:10;7.40;99.90
22968;DHT22;11650;48.106;-1.696;2023-12-20T00:15:35;7.40;99.90
22968;DHT22;11650;48.106;-1.696;2023-12-20T00:18:01;7.30;99.90
22968;DHT22;11650;48.106;-1.696;2023-12-20T00:20:26;7.30;99.90
22968;DHT22;11650;48.106;-1.696;2023-12-20T00:22:53;7.30;99.90
22968;DHT22;11650;48.106;-1.696;2023-12-20T00:25:19;7.20;99.90
22968;DHT22;11650;48.106;-1.696;2023-12-20T00:27:44;7.20;99.90
22968;DHT22;11650;48.106;-1.696;2023-12-20T00:30:10;7.20;99.90
22968;DHT22;11650;48.106;-1.696;2023-12-20T00:32:35;7.20;99.90
22968;DHT22;11650;48.106;-1.696;2023-12-20T00:35:01;7.10;99.90
22968;DHT22;11650;48.106;-1.696;2023-12-20T00:37:26;7.10;99.90
22968;DHT22;11650;48.106;-1.696;2023-12-20T00:39:52;7.00;99.90
22968;DHT22;11650;48.106;-1.696;2023-12-20T00:42:17;7.00;99.90
22968;DHT22;11650;48.106;-1.696;2023-12-20T00:44:43;7.00;99.90
22968;DHT22;11650;48.106;-1.696;2023-12-20T00:47:08;6.90;99.90
22968;DHT22;11650;48.106;-1.696;2023-12-20T00:49:34;6.80;99.90
22968;DHT22;11650;48.106;-1.696;2023-12-20T00:51:59;6.80;99.90
22968;DHT22;11650;48.106;-1.696;2023-12-20T00:54:25;6.80;99.90
22968;DHT22;11650;48.106;-1.696;2023-12-20T00:56:51;6.70;99.90
22968;DHT22;11650;48.106;-1.696;2023-12-20T00:59:16;6.70;99.90
22968;DHT22;11650;48.106;-1.696;2023-12-20T01:01:42;6.70;99.90
22968;DHT22;11650;48.106;-1.696;2023-12-20T01:04:08;6.60;99.90
22968;DHT22;11650;48.106;-1.696;2023-12-20T01:06:33;6.60;99.90
22968;DHT22;11650;48.106;-1.696;2023-12-20T01:08:59;6.60;99.90
22968;DHT22;11650;48.106;-1.696;2023-12-20T01:11:28;6.50;99.90
22968;DHT22;11650;48.106;-1.696;2023-12-20T01:13:53;6.60;99.90
22968;DHT22;11650;48.106;-1.696;2023-12-20T01:16:19;6.60;99.90
22968;DHT22;11650;48.106;-1.696;2023-12-20T01:18:44;6.60;99.90
22968;DHT22;11650;48.106;-1.696;2023-12-20T01:21:10;6.60;99.90
22968;DHT22;11650;48.106;-1.696;2023-12-20T01:23:35;6.70;99.90
22968;DHT22;11650;48.106;-1.696;2023-12-20T01:26:01;6.70;99.90
22968;DHT22;11650;48.106;-1.696;2023-12-20T01:28:27;6.70;99.90
22968;DHT22;11650;48.106;-1.696;2023-12-20T01:30:53;6.70;99.90
22968;DHT22;11650;48.106;-1.696;2023-12-20T01:33:18;6.70;99.90
22968;DHT22;11650;48.106;-1.696;2023-12-20T01:35:44;6.80;99.90
22968;DHT22;11650;48.106;-1.696;2023-12-20T01:38:09;6.80;99.90
22968;DHT22;11650;48.106;-1.696;2023-12-20T01:40:35;6.80;99.90
22968;DHT22;11650;48.106;-1.696;2023-12-20T01:43:01;6.80;99.90
22968;DHT22;11650;48.106;-1.696;2023-12-20T01:45:27;6.90;99.90
22968;DHT22;11650;48.106;-1.696;2023-12-20T01:47:52;6.80;99.90
22968;DHT22;11650;48.106;-1.696;2023-12-20T01:50:18;6.80;99.90
22968;DHT22;11650;48.106;-1.696;2023-12-20T01:52:44;6.90;99.90
22968;DHT22;11650;48.106;-1.696;2023-12-20T01:55:09;6.90;99.90
22968;DHT22;11650;48.106;-1.696;2023-12-20T01:57:43;6.90;99.90
22968;DHT22;11650;48.106;-1.696;2023-12-20T02:00:10;6.90;99.90
22968;DHT22;11650;48.106;-1.696;2023-12-20T02:02:36;6.80;99.90
22968;DHT22;11650;48.106;-1.696;2023-12-20T02:05:05;6.80;99.90
22968;DHT22;11650;48.106;-1.696;2023-12-20T02:07:30;6.70;99.90
22968;DHT22;11650;48.106;-1.696;2023-12-20T02:09:56;6.70;99.90
22968;DHT22;11650;48.106;-1.696;2023-12-20T02:12:21;6.70;99.90
22968;DHT22;11650;48.106;-1.696;2023-12-20T02:14:47;6.70;99.90
22968;DHT22;11650;48.106;-1.696;2023-12-20T02:17:13;6.70;99.90
22968;DHT22;11650;48.106;-1.696;2023-12-20T02:19:38;6.70;99.90
22968;DHT22;11650;48.106;-1.696;2023-12-20T02:22:05;6.70;99.90
22968;DHT22;11650;48.106;-1.696;2023-12-20T02:24:30;6.70;99.90
22968;DHT22;11650;48.106;-1.696;2023-12-20T02:26:55;6.70;99.90
22968;DHT22;11650;48.106;-1.696;2023-12-20T02:29:21;6.80;99.90
22968;DHT22;11650;48.106;-1.696;2023-12-20T02:31:46;6.80;99.90
22968;DHT22;11650;48.106;-1.696;2023-12-20T02:34:12;6.90;99.90
22968;DHT22;11650;48.106;-1.696;2023-12-20T02:36:37;6.90;99.90
22968;DHT22;11650;48.106;-1.696;2023-12-20T02:39:03;7.00;99.90
22968;DHT22;11650;48.106;-1.696;2023-12-20T02:41:29;7.00;99.90
22968;DHT22;11650;48.106;-1.696;2023-12-20T02:43:55;7.00;99.90
22968;DHT22;11650;48.106;-1.696;2023-12-20T02:46:20;6.90;99.90
22968;DHT22;11650;48.106;-1.696;2023-12-20T02:48:46;6.80;99.90
22968;DHT22;11650;48.106;-1.696;2023-12-20T02:51:12;6.80;99.90
22968;DHT22;11650;48.106;-1.696;2023-12-20T02:53:37;6.80;99.90
22968;DHT22;11650;48.106;-1.696;2023-12-20T02:56:03;6.70;99.90
22968;DHT22;11650;48.106;-1.696;2023-12-20T02:58:29;6.80;99.90
22968;DHT22;11650;48.106;-1.696;2023-12-20T03:00:54;6.70;99.90
22968;DHT22;11650;48.106;-1.696;2023-12-20T03:03:20;6.70;99.90
22968;DHT22;11650;48.106;-1.696;2023-12-20T03:05:45;6.70;99.90
22968;DHT22;11650;48.106;-1.696;2023-12-20T03:08:11;6.60;99.90
22968;DHT22;11650;48.106;-1.696;2023-12-20T03:10:37;6.60;99.90
22968;DHT22;11650;48.106;-1.696;2023-12-20T03:13:02;6.50;99.90
22968;DHT22;11650;48.106;-1.696;2023-12-20T03:15:28;6.40;99.90
22968;DHT22;11650;48.106;-1.696;2023-12-20T03:17:53;6.40;99.90
22968;DHT22;11650;48.106;-1.696;2023-12-20T03:20:19;6.40;99.90
22968;DHT22;11650;48.106;-1.696;2023-12-20T03:22:44;6.40;99.90
22968;DHT22;11650;48.106;-1.696;2023-12-20T03:25:10;6.40;99.90
22968;DHT22;11650;48.106;-1.696;2023-12-20T03:27:38;6.40;99.90
22968;DHT22;11650;48.106;-1.696;2023-12-20T03:30:04;6.40;99.90
22968;DHT22;11650;48.106;-1.696;2023-12-20T03:32:30;6.50;99.90
22968;DHT22;11650;48.106;-1.696;2023-12-20T03:34:55;6.50;99.90
22968;DHT22;11650;48.106;-1.696;2023-12-20T03:37:21;6.40;99.90
22968;DHT22;11650;48.106;-1.696;2023-12-20T03:39:47;6.40;99.90
22968;DHT22;11650;48.106;-1.696;2023-12-20T03:42:12;6.40;99.90
22968;DHT22;11650;48.106;-1.696;2023-12-20T03:44:38;6.40;99.90
22968;DHT22;11650;48.106;-1.696;2023-12-20T03:47:05;6.30;99.90
22968;DHT22;11650;48.106;-1.696;2023-12-20T03:49:30;6.30;99.90
22968;DHT22;11650;48.106;-1.696;2023-12-20T03:51:56;6.30;99.90
22968;DHT22;11650;48.106;-1.696;2023-12-20T03:54:21;6.30;99.90
22968;DHT22;11650;48.106;-1.696;2023-12-20T03:56:47;6.30;99.90
22968;DHT22;11650;48.106;-1.696;2023-12-20T03:59:12;6.40;99.90
22968;DHT22;11650;48.106;-1.696;2023-12-20T04:01:38;6.40;99.90
22968;DHT22;11650;48.106;-1.696;2023-12-20T04:04:03;6.40;99.90
22968;DHT22;11650;48.106;-1.696;2023-12-20T04:06:29;6.40;99.90
22968;DHT22;11650;48.106;-1.696;2023-12-20T04:08:54;6.40;99.90
22968;DHT22;11650;48.106;-1.696;2023-12-20T04:11:20;6.40;99.90
22968;DHT22;11650;48.106;-1.696;2023-12-20T04:13:45;6.50;99.90
22968;DHT22;11650;48.106;-1.696;2023-12-20T04:16:11;6.60;99.90
22968;DHT22;11650;48.106;-1.696;2023-12-20T04:18:36;6.60;99.90
22968;DHT22;11650;48.106;-1.696;2023-12-20T04:21:02;6.70;99.90
22968;DHT22;11650;48.106;-1.696;2023-12-20T04:23:27;6.60;99.90
22968;DHT22;11650;48.106;-1.696;2023-12-20T04:25:54;6.60;99.90
22968;DHT22;11650;48.106;-1.696;2023-12-20T04:28:20;6.60;99.90
22968;DHT22;11650;48.106;-1.696;2023-12-20T04:33:44;6.50;99.90
22968;DHT22;11650;48.106;-1.696;2023-12-20T04:36:10;6.40;99.90
22968;DHT22;11650;48.106;-1.696;2023-12-20T04:38:35;6.30;99.90
22968;DHT22;11650;48.106;-1.696;2023-12-20T04:41:01;6.30;99.90
22968;DHT22;11650;48.106;-1.696;2023-12-20T04:43:27;6.30;99.90
22968;DHT22;11650;48.106;-1.696;2023-12-20T04:45:53;6.30;99.90
22968;DHT22;11650;48.106;-1.696;2023-12-20T04:48:19;6.30;99.90
22968;DHT22;11650;48.106;-1.696;2023-12-20T04:50:44;6.30;99.90
22968;DHT22;11650;48.106;-1.696;2023-12-20T04:53:10;6.30;99.90
22968;DHT22;11650;48.106;-1.696;2023-12-20T04:55:35;6.30;99.90
22968;DHT22;11650;48.106;-1.696;2023-12-20T04:58:01;6.40;99.90
22968;DHT22;11650;48.106;-1.696;2023-12-20T05:00:27;6.40;99.90
22968;DHT22;11650;48.106;-1.696;2023-12-20T05:02:52;6.40;99.90
22968;DHT22;11650;48.106;-1.696;2023-12-20T05:05:18;6.50;99.90
22968;DHT22;11650;48.106;-1.696;2023-12-20T05:07:43;6.60;99.90
22968;DHT22;11650;48.106;-1.696;2023-12-20T05:10:09;6.60;99.90
22968;DHT22;11650;48.106;-1.696;2023-12-20T05:12:34;6.70;99.90
22968;DHT22;11650;48.106;-1.696;2023-12-20T05:15:00;6.70;99.90
22968;DHT22;11650;48.106;-1.696;2023-12-20T05:17:26;6.70;99.90
22968;DHT22;11650;48.106;-1.696;2023-12-20T05:19:51;6.60;99.90
22968;DHT22;11650;48.106;-1.696;2023-12-20T05:22:17;6.60;99.90
22968;DHT22;11650;48.106;-1.696;2023-12-20T05:24:42;6.60;99.90
22968;DHT22;11650;48.106;-1.696;2023-12-20T05:27:08;6.50;99.90
22968;DHT22;11650;48.106;-1.696;2023-12-20T05:29:33;6.50;99.90
22968;DHT22;11650;48.106;-1.696;2023-12-20T05:31:59;6.50;99.90
22968;DHT22;11650;48.106;-1.696;2023-12-20T05:34:24;6.50;99.90
22968;DHT22;11650;48.106;-1.696;2023-12-20T05:36:50;6.40;99.90
22968;DHT22;11650;48.106;-1.696;2023-12-20T05:39:15;6.40;99.90
22968;DHT22;11650;48.106;-1.696;2023-12-20T05:41:41;6.40;99.90
22968;DHT22;11650;48.106;-1.696;2023-12-20T05:44:06;6.40;99.90
22968;DHT22;11650;48.106;-1.696;2023-12-20T05:46:32;6.40;99.90
22968;DHT22;11650;48.106;-1.696;2023-12-20T05:48:58;6.30;99.90
22968;DHT22;11650;48.106;-1.696;2023-12-20T05:51:23;6.30;99.90
22968;DHT22;11650;48.106;-1.696;2023-12-20T05:53:49;6.20;99.90
22968;DHT22;11650;48.106;-1.696;2023-12-20T05:56:15;6.30;99.90
22968;DHT22;11650;48.106;-1.696;2023-12-20T05:58:40;6.20;99.90
22968;DHT22;11650;48.106;-1.696;2023-12-20T06:01:06;6.20;99.90
22968;DHT22;11650;48.106;-1.696;2023-12-20T06:03:33;6.20;99.90
22968;DHT22;11650;48.106;-1.696;2023-12-20T06:05:59;6.20;99.90
22968;DHT22;11650;48.106;-1.696;2023-12-20T06:08:26;6.30;99.90
22968;DHT22;11650;48.106;-1.696;2023-12-20T06:10:51;6.30;99.90
22968;DHT22;11650;48.106;-1.696;2023-12-20T06:13:17;6.30;99.90
22968;DHT22;11650;48.106;-1.696;2023-12-20T06:15:42;6.30;99.90
22968;DHT22;11650;48.106;-1.696;2023-12-20T06:18:08;6.50;99.90
22968;DHT22;11650;48.106;-1.696;2023-12-20T06:20:33;6.50;99.90
22968;DHT22;11650;48.106;-1.696;2023-12-20T06:22:59;6.60;99.90
22968;DHT22;11650;48.106;-1.696;2023-12-20T06:25:24;6.60;99.90
22968;DHT22;11650;48.106;-1.696;2023-12-20T06:27:50;6.60;99.90
22968;DHT22;11650;48.106;-1.696;2023-12-20T06:30:16;6.70;99.90
22968;DHT22;11650;48.106;-1.696;2023-12-20T06:32:41;6.70;99.90
22968;DHT22;11650;48.106;-1.696;2023-12-20T06:35:08;6.70;99.90
22968;DHT22;11650;48.106;-1.696;2023-12-20T06:37:34;6.70;99.90
22968;DHT22;11650;48.106;-1.696;2023-12-20T06:39:59;6.60;99.90
22968;DHT22;11650;48.106;-1.696;2023-12-20T06:42:25;6.60;99.90
22968;DHT22;11650;48.106;-1.696;2023-12-20T06:44:50;6.60;99.90
22968;DHT22;11650;48.106;-1.696;2023-12-20T06:47:16;6.60;99.90
22968;DHT22;11650;48.106;-1.696;2023-12-20T06:49:41;6.60;99.90
22968;DHT22;11650;48.106;-1.696;2023-12-20T06:52:07;6.70;99.90
22968;DHT22;11650;48.106;-1.696;2023-12-20T06:54:32;6.70;99.90
22968;DHT22;11650;48.106;-1.696;2023-12-20T06:56:59;6.70;99.90
22968;DHT22;11650;48.106;-1.696;2023-12-20T06:59:25;6.70;99.90
22968;DHT22;11650;48.106;-1.696;2023-12-20T07:01:51;6.80;99.90
22968;DHT22;11650;48.106;-1.696;2023-12-20T07:04:16;6.80;99.90
22968;DHT22;11650;48.106;-1.696;2023-12-20T07:06:50;6.80;99.90
22968;DHT22;11650;48.106;-1.696;2023-12-20T07:09:17;6.70;99.90
22968;DHT22;11650;48.106;-1.696;2023-12-20T07:11:42;6.70;99.90
22968;DHT22;11650;48.106;-1.696;2023-12-20T07:14:08;6.70;99.90
22968;DHT22;11650;48.106;-1.696;2023-12-20T07:16:34;6.60;99.90
22968;DHT22;11650;48.106;-1.696;2023-12-20T07:19:00;6.60;99.90
22968;DHT22;11650;48.106;-1.696;2023-12-20T07:21:25;6.60;99.90
22968;DHT22;11650;48.106;-1.696;2023-12-20T07:23:51;6.60;99.90
22968;DHT22;11650;48.106;-1.696;2023-12-20T07:26:17;6.60;99.90
22968;DHT22;11650;48.106;-1.696;2023-12-20T07:28:42;6.50;99.90
22968;DHT22;11650;48.106;-1.696;2023-12-20T07:31:08;6.50;99.90
22968;DHT22;11650;48.106;-1.696;2023-12-20T07:33:33;6.50;99.90
22968;DHT22;11650;48.106;-1.696;2023-12-20T07:35:59;6.60;99.90
22968;DHT22;11650;48.106;-1.696;2023-12-20T07:38:24;6.60;99.90
22968;DHT22;11650;48.106;-1.696;2023-12-20T07:40:50;6.70;99.90
22968;DHT22;11650;48.106;-1.696;2023-12-20T07:43:16;6.70;99.90
22968;DHT22;11650;48.106;-1.696;2023-12-20T07:45:41;6.70;99.90
22968;DHT22;11650;48.106;-1.696;2023-12-20T07:48:07;6.80;99.90
22968;DHT22;11650;48.106;-1.696;2023-12-20T07:50:32;6.80;99.90
22968;DHT22;11650;48.106;-1.696;2023-12-20T07:52:58;6.80;99.90
22968;DHT22;11650;48.106;-1.696;2023-12-20T07:55:26;6.80;99.90
22968;DHT22;11650;48.106;-1.696;2023-12-20T07:57:51;6.80;99.90
22968;DHT22;11650;48.106;-1.696;2023-12-20T08:00:17;6.80;99.90
22968;DHT22;11650;48.106;-1.696;2023-12-20T08:02:42;6.70;99.90
22968;DHT22;11650;48.106;-1.696;2023-12-20T08:05:08;6.70;99.90
22968;DHT22;11650;48.106;-1.696;2023-12-20T08:07:34;6.70;99.90
22968;DHT22;11650;48.106;-1.696;2023-12-20T08:10:00;6.70;99.90
22968;DHT22;11650;48.106;-1.696;2023-12-20T08:12:25;6.70;99.90
22968;DHT22;11650;48.106;-1.696;2023-12-20T08:14:53;6.70;99.90
22968;DHT22;11650;48.106;-1.696;2023-12-20T08:17:18;6.70;99.90
22968;DHT22;11650;48.106;-1.696;2023-12-20T08:19:44;6.70;99.90
22968;DHT22;11650;48.106;-1.696;2023-12-20T08:22:10;6.70;99.90
22968;DHT22;11650;48.106;-1.696;2023-12-20T08:24:36;6.70;99.90
22968;DHT22;11650;48.106;-1.696;2023-12-20T08:27:01;6.70;99.90
22968;DHT22;11650;48.106;-1.696;2023-12-20T08:29:27;6.80;99.90
22968;DHT22;11650;48.106;-1.696;2023-12-20T08:31:53;6.70;99.90
22968;DHT22;11650;48.106;-1.696;2023-12-20T08:34:19;6.70;99.90
22968;DHT22;11650;48.106;-1.696;2023-12-20T08:36:45;6.80;99.90
22968;DHT22;11650;48.106;-1.696;2023-12-20T08:39:10;6.70;99.90
22968;DHT22;11650;48.106;-1.696;2023-12-20T08:41:35;6.80;99.90
22968;DHT22;11650;48.106;-1.696;2023-12-20T08:44:02;6.80;99.90
22968;DHT22;11650;48.106;-1.696;2023-12-20T08:46:28;6.80;99.90
22968;DHT22;11650;48.106;-1.696;2023-12-20T08:48:53;6.80;99.90
22968;DHT22;11650;48.106;-1.696;2023-12-20T08:51:19;6.90;99.90
22968;DHT22;11650;48.106;-1.696;2023-12-20T08:53:44;6.90;99.90
22968;DHT22;11650;48.106;-1.696;2023-12-20T08:56:11;6.90;99.90
22968;DHT22;11650;48.106;-1.696;2023-12-20T08:58:37;6.80;99.90
22968;DHT22;11650;48.106;-1.696;2023-12-20T09:01:02;6.90;99.90
22968;DHT22;11650;48.106;-1.696;2023-12-20T09:03:28;6.90;99.90
22968;DHT22;11650;48.106;-1.696;2023-12-20T09:05:54;7.00;99.90
22968;DHT22;11650;48.106;-1.696;2023-12-20T09:08:19;7.20;99.90
22968;DHT22;11650;48.106;-1.696;2023-12-20T09:10:45;7.30;99.90
22968;DHT22;11650;48.106;-1.696;2023-12-20T09:13:10;7.30;99.90
22968;DHT22;11650;48.106;-1.696;2023-12-20T09:15:35;7.30;99.90
22968;DHT22;11650;48.106;-1.696;2023-12-20T09:18:01;7.30;99.90
22968;DHT22;11650;48.106;-1.696;2023-12-20T09:20:27;7.20;99.90
22968;DHT22;11650;48.106;-1.696;2023-12-20T09:22:53;7.20;99.90
22968;DHT22;11650;48.106;-1.696;2023-12-20T09:25:18;7.10;99.90
22968;DHT22;11650;48.106;-1.696;2023-12-20T09:27:43;7.30;99.90
22968;DHT22;11650;48.106;-1.696;2023-12-20T09:30:09;7.30;99.90
22968;DHT22;11650;48.106;-1.696;2023-12-20T09:32:35;7.40;99.90
22968;DHT22;11650;48.106;-1.696;2023-12-20T09:35:01;7.50;99.90
22968;DHT22;11650;48.106;-1.696;2023-12-20T09:37:26;7.60;99.90
22968;DHT22;11650;48.106;-1.696;2023-12-20T09:39:52;7.70;99.90
22968;DHT22;11650;48.106;-1.696;2023-12-20T09:42:21;7.80;99.90
22968;DHT22;11650;48.106;-1.696;2023-12-20T09:44:49;7.80;99.90
22968;DHT22;11650;48.106;-1.696;2023-12-20T09:47:14;7.90;99.90
22968;DHT22;11650;48.106;-1.696;2023-12-20T09:49:41;8.10;99.90
22968;DHT22;11650;48.106;-1.696;2023-12-20T09:52:07;8.30;99.90
22968;DHT22;11650;48.106;-1.696;2023-12-20T09:54:34;8.30;99.90
22968;DHT22;11650;48.106;-1.696;2023-12-20T09:57:00;8.10;99.90
22968;DHT22;11650;48.106;-1.696;2023-12-20T09:59:25;8.00;99.90
22968;DHT22;11650;48.106;-1.696;2023-12-20T10:01:51;8.10;99.90
22968;DHT22;11650;48.106;-1.696;2023-12-20T10:04:20;8.20;99.90
22968;DHT22;11650;48.106;-1.696;2023-12-20T10:06:46;8.40;99.90
22968;DHT22;11650;48.106;-1.696;2023-12-20T10:09:12;8.50;99.90
22968;DHT22;11650;48.106;-1.696;2023-12-20T10:11:38;8.70;99.90
22968;DHT22;11650;48.106;-1.696;2023-12-20T10:14:04;8.70;99.90
22968;DHT22;11650;48.106;-1.696;2023-12-20T10:16:30;8.80;99.90
22968;DHT22;11650;48.106;-1.696;2023-12-20T10:18:56;8.90;99.90
22968;DHT22;11650;48.106;-1.696;2023-12-20T10:21:22;9.00;99.90
22968;DHT22;11650;48.106;-1.696;2023-12-20T10:23:48;9.00;99.90
22968;DHT22;11650;48.106;-1.696;2023-12-20T10:26:21;9.10;99.90
22968;DHT22;11650;48.106;-1.696;2023-12-20T10:28:49;9.20;99.90
22968;DHT22;11650;48.106;-1.696;2023-12-20T10:31:48;9.20;99.90
22968;DHT22;11650;48.106;-1.696;2023-12-20T10:34:07;9.20;99.90
22968;DHT22;11650;48.106;-1.696;2023-12-20T10:36:33;9.20;99.90
22968;DHT22;11650;48.106;-1.696;2023-12-20T10:38:59;9.10;99.90
22968;DHT22;11650;48.106;-1.696;2023-12-20T10:41:29;9.10;99.90
22968;DHT22;11650;48.106;-1.696;2023-12-20T10:43:56;9.30;99.90
22968;DHT22;11650;48.106;-1.696;2023-12-20T10:46:23;9.40;99.90
22968;DHT22;11650;48.106;-1.696;2023-12-20T10:48:53;9.50;99.90
22968;DHT22;11650;48.106;-1.696;2023-12-20T10:51:19;9.70;99.90
22968;DHT22;11650;48.106;-1.696;2023-12-20T10:53:45;9.70;99.90
22968;DHT22;11650;48.106;-1.696;2023-12-20T10:56:12;9.90;99.90
22968;DHT22;11650;48.106;-1.696;2023-12-20T10:58:41;10.00;99.90
22968;DHT22;11650;48.106;-1.696;2023-12-20T11:01:08;10.00;99.90
22968;DHT22;11650;48.106;-1.696;2023-12-20T11:03:34;10.10;99.90
22968;DHT22;11650;48.106;-1.696;2023-12-20T11:06:11;10.20;99.90
22968;DHT22;11650;48.106;-1.696;2023-12-20T11:11:29;10.20;99.90
22968;DHT22;11650;48.106;-1.696;2023-12-20T11:14:02;10.20;99.90
22968;DHT22;11650;48.106;-1.696;2023-12-20T11:16:29;10.20;99.90
22968;DHT22;11650;48.106;-1.696;2023-12-20T11:18:56;10.30;99.90
22968;DHT22;11650;48.106;-1.696;2023-12-20T11:21:21;10.40;99.90
22968;DHT22;11650;48.106;-1.696;2023-12-20T11:23:47;10.30;99.90
22968;DHT22;11650;48.106;-1.696;2023-12-20T11:26:15;10.40;99.90
22968;DHT22;11650;48.106;-1.696;2023-12-20T11:28:41;10.30;99.90
22968;DHT22;11650;48.106;-1.696;2023-12-20T11:31:06;10.40;99.90
22968;DHT22;11650;48.106;-1.696;2023-12-20T11:33:36;10.50;99.90
22968;DHT22;11650;48.106;-1.696;2023-12-20T11:36:01;10.60;99.90
22968;DHT22;11650;48.106;-1.696;2023-12-20T11:38:35;10.80;99.90
22968;DHT22;11650;48.106;-1.696;2023-12-20T11:41:01;10.80;99.90
22968;DHT22;11650;48.106;-1.696;2023-12-20T11:43:29;10.70;99.90
22968;DHT22;11650;48.106;-1.696;2023-12-20T11:45:55;10.70;99.90
22968;DHT22;11650;48.106;-1.696;2023-12-20T11:48:20;10.60;99.90
22968;DHT22;11650;48.106;-1.696;2023-12-20T11:50:46;10.60;99.90
22968;DHT22;11650;48.106;-1.696;2023-12-20T11:53:12;10.80;99.90
22968;DHT22;11650;48.106;-1.696;2023-12-20T11:55:37;10.90;99.90
22968;DHT22;11650;48.106;-1.696;2023-12-20T11:58:03;11.10;99.90
22968;DHT22;11650;48.106;-1.696;2023-12-20T12:00:28;11.20;99.90
22968;DHT22;11650;48.106;-1.696;2023-12-20T12:02:54;11.10;99.90
22968;DHT22;11650;48.106;-1.696;2023-12-20T12:05:20;11.30;99.90
22968;DHT22;11650;48.106;-1.696;2023-12-20T12:07:45;11.40;99.90
22968;DHT22;11650;48.106;-1.696;2023-12-20T12:10:11;11.70;99.90
22968;DHT22;11650;48.106;-1.696;2023-12-20T12:12:36;11.70;99.90
22968;DHT22;11650;48.106;-1.696;2023-12-20T12:15:02;11.90;99.90
22968;DHT22;11650;48.106;-1.696;2023-12-20T12:17:28;12.00;99.90
22968;DHT22;11650;48.106;-1.696;2023-12-20T12:20:01;11.80;99.90
22968;DHT22;11650;48.106;-1.696;2023-12-20T12:22:27;12.00;99.90
22968;DHT22;11650;48.106;-1.696;2023-12-20T12:24:53;13.20;99.90
22968;DHT22;11650;48.106;-1.696;2023-12-20T12:27:18;13.70;99.90
22968;DHT22;11650;48.106;-1.696;2023-12-20T12:30:00;13.60;99.90
22968;DHT22;11650;48.106;-1.696;2023-12-20T12:32:26;13.10;99.90
22968;DHT22;11650;48.106;-1.696;2023-12-20T12:34:51;12.30;99.90
22968;DHT22;11650;48.106;-1.696;2023-12-20T12:37:17;12.00;99.90
22968;DHT22;11650;48.106;-1.696;2023-12-20T12:39:43;11.70;99.90
22968;DHT22;11650;48.106;-1.696;2023-12-20T12:42:08;11.60;99.90
22968;DHT22;11650;48.106;-1.696;2023-12-20T12:44:34;11.70;99.90
22968;DHT22;11650;48.106;-1.696;2023-12-20T12:46:59;11.70;99.90
22968;DHT22;11650;48.106;-1.696;2023-12-20T12:49:24;12.10;99.90
22968;DHT22;11650;48.106;-1.696;2023-12-20T12:51:50;12.40;99.90
22968;DHT22;11650;48.106;-1.696;2023-12-20T12:54:16;12.20;99.90
22968;DHT22;11650;48.106;-1.696;2023-12-20T12:56:43;12.20;99.90
22968;DHT22;11650;48.106;-1.696;2023-12-20T12:59:09;12.20;99.90
22968;DHT22;11650;48.106;-1.696;2023-12-20T13:01:35;12.00;99.90
22968;DHT22;11650;48.106;-1.696;2023-12-20T13:04:00;12.00;99.90
22968;DHT22;11650;48.106;-1.696;2023-12-20T13:06:28;11.90;99.90
22968;DHT22;11650;48.106;-1.696;2023-12-20T13:08:54;11.80;99.90
22968;DHT22;11650;48.106;-1.696;2023-12-20T13:11:20;11.60;99.90
22968;DHT22;11650;48.106;-1.696;2023-12-20T13:13:46;11.60;99.90
22968;DHT22;11650;48.106;-1.696;2023-12-20T13:16:12;11.60;99.90
22968;DHT22;11650;48.106;-1.696;2023-12-20T13:18:38;11.40;99.90
22968;DHT22;11650;48.106;-1.696;2023-12-20T13:21:07;11.40;99.90
22968;DHT22;11650;48.106;-1.696;2023-12-20T13:23:33;11.40;99.90
22968;DHT22;11650;48.106;-1.696;2023-12-20T13:25:58;11.20;99.90
22968;DHT22;11650;48.106;-1.696;2023-12-20T13:28:24;11.30;99.90
22968;DHT22;11650;48.106;-1.696;2023-12-20T13:30:49;11.30;99.90
22968;DHT22;11650;48.106;-1.696;2023-12-20T13:33:15;11.20;99.90
22968;DHT22;11650;48.106;-1.696;2023-12-20T13:35:40;11.20;99.90
22968;DHT22;11650;48.106;-1.696;2023-12-20T13:38:06;11.20;99.90
22968;DHT22;11650;48.106;-1.696;2023-12-20T13:40:33;11.30;99.90
22968;DHT22;11650;48.106;-1.696;2023-12-20T13:42:58;11.40;99.90
22968;DHT22;11650;48.106;-1.696;2023-12-20T13:45:24;11.70;99.90
22968;DHT22;11650;48.106;-1.696;2023-12-20T13:47:50;11.70;99.90
22968;DHT22;11650;48.106;-1.696;2023-12-20T13:50:16;11.50;99.90
22968;DHT22;11650;48.106;-1.696;2023-12-20T13:52:41;11.40;99.90
22968;DHT22;11650;48.106;-1.696;2023-12-20T13:55:07;11.30;99.90
22968;DHT22;11650;48.106;-1.696;2023-12-20T13:57:33;11.20;99.90
22968;DHT22;11650;48.106;-1.696;2023-12-20T13:59:59;11.20;99.90
22968;DHT22;11650;48.106;-1.696;2023-12-20T14:02:25;11.20;99.90
22968;DHT22;11650;48.106;-1.696;2023-12-20T14:04:52;11.10;99.90
22968;DHT22;11650;48.106;-1.696;2023-12-20T14:07:17;11.40;99.90
22968;DHT22;11650;48.106;-1.696;2023-12-20T14:09:43;11.50;99.90
22968;DHT22;11650;48.106;-1.696;2023-12-20T14:12:14;11.80;99.90
22968;DHT22;11650;48.106;-1.696;2023-12-20T14:14:39;13.70;99.90
22968;DHT22;11650;48.106;-1.696;2023-12-20T14:17:05;14.00;99.90
22968;DHT22;11650;48.106;-1.696;2023-12-20T14:19:34;13.60;99.90
22968;DHT22;11650;48.106;-1.696;2023-12-20T14:21:59;13.10;99.90
22968;DHT22;11650;48.106;-1.696;2023-12-20T14:24:27;12.40;99.90
22968;DHT22;11650;48.106;-1.696;2023-12-20T14:26:52;12.00;99.90
22968;DHT22;11650;48.106;-1.696;2023-12-20T14:29:18;11.70;99.90
22968;DHT22;11650;48.106;-1.696;2023-12-20T14:31:44;11.40;99.90
22968;DHT22;11650;48.106;-1.696;2023-12-20T14:34:09;11.40;99.90
22968;DHT22;11650;48.106;-1.696;2023-12-20T14:36:35;11.30;99.90
22968;DHT22;11650;48.106;-1.696;2023-12-20T14:39:00;11.30;99.90
22968;DHT22;11650;48.106;-1.696;2023-12-20T14:41:28;11.30;99.90
22968;DHT22;11650;48.106;-1.696;2023-12-20T14:43:53;11.30;99.90
22968;DHT22;11650;48.106;-1.696;2023-12-20T14:46:19;11.40;99.90
22968;DHT22;11650;48.106;-1.696;2023-12-20T14:48:44;11.40;99.90
22968;DHT22;11650;48.106;-1.696;2023-12-20T14:51:10;11.40;99.90
22968;DHT22;11650;48.106;-1.696;2023-12-20T14:53:37;11.40;99.90
22968;DHT22;11650;48.106;-1.696;2023-12-20T14:56:03;11.30;99.90
22968;DHT22;11650;48.106;-1.696;2023-12-20T14:58:29;11.20;99.90
22968;DHT22;11650;48.106;-1.696;2023-12-20T15:00:55;11.20;99.90
22968;DHT22;11650;48.106;-1.696;2023-12-20T15:03:21;11.20;99.90
22968;DHT22;11650;48.106;-1.696;2023-12-20T15:05:47;11.10;99.90
22968;DHT22;11650;48.106;-1.696;2023-12-20T15:08:13;11.10;99.90
22968;DHT22;11650;48.106;-1.696;2023-12-20T15:10:39;11.20;99.90
22968;DHT22;11650;48.106;-1.696;2023-12-20T15:13:04;11.20;99.90
22968;DHT22;11650;48.106;-1.696;2023-12-20T15:15:30;11.20;99.90
22968;DHT22;11650;48.106;-1.696;2023-12-20T15:17:57;11.10;99.90
22968;DHT22;11650;48.106;-1.696;2023-12-20T15:20:23;11.10;99.90
22968;DHT22;11650;48.106;-1.696;2023-12-20T15:22:48;11.10;99.90
22968;DHT22;11650;48.106;-1.696;2023-12-20T15:25:14;11.20;99.90